createdAt,value
2022-11-12T00:04:12.047Z,4.47
2022-11-12T00:09:32.364Z,2.00
2022-11-12T00:14:52.646Z,2.65
2022-11-12T00:20:13.084Z,6.22
2022-11-12T00:25:33.465Z,3.60
2022-11-12T00:30:53.831Z,2.92
2022-11-12T00:36:14.391Z,2.13
2022-11-12T00:41:34.427Z,2.55
2022-11-12T00:46:54.998Z,2.25
2022-11-12T00:52:15.123Z,2.60
2022-11-12T00:57:35.576Z,1.95
2022-11-12T01:02:56.168Z,3.40
2022-11-12T01:08:16.285Z,1.77
2022-11-12T01:13:42.969Z,2.25
2022-11-12T01:19:08.027Z,3.80
2022-11-12T01:24:28.375Z,4.53
2022-11-12T01:29:48.580Z,3.53
2022-11-12T01:35:09.143Z,2.95
2022-11-12T01:40:29.299Z,1.13
2022-11-12T01:45:51.388Z,2.42
2022-11-12T01:51:12.696Z,5.05
2022-11-12T01:56:33.869Z,1.10
2022-11-12T02:07:14.951Z,0.73
2022-11-12T02:12:54.674Z,1.70
2022-11-12T02:18:15.459Z,2.28
2022-11-12T02:23:37.307Z,1.80
2022-11-12T02:28:57.351Z,3.97
2022-11-12T02:34:17.746Z,0.95
2022-11-12T02:39:38.144Z,1.17
2022-11-12T02:44:58.650Z,2.35
2022-11-12T02:50:19.628Z,1.35
2022-11-12T02:55:39.800Z,1.10
2022-11-12T03:01:00.412Z,1.75
2022-11-12T03:11:41.357Z,1.52
2022-11-12T03:17:01.720Z,0.63
2022-11-12T03:22:22.118Z,1.80
2022-11-12T03:27:42.438Z,1.80
2022-11-12T03:33:04.063Z,1.70
2022-11-12T03:38:25.125Z,1.08
2022-11-12T03:43:46.089Z,1.33
2022-11-12T03:49:06.486Z,4.82
2022-11-12T03:54:26.810Z,1.30
2022-11-12T03:59:47.205Z,1.08
2022-11-12T04:05:27.107Z,1.77
2022-11-12T04:10:47.838Z,1.17
2022-11-12T04:16:32.880Z,1.10
2022-11-12T04:21:56.402Z,1.70
2022-11-12T04:27:22.763Z,1.58
2022-11-12T04:32:54.752Z,0.93
2022-11-12T04:38:15.183Z,1.98
2022-11-12T04:43:53.948Z,1.02
2022-11-12T04:49:14.072Z,1.88
2022-11-12T04:54:34.729Z,1.13
2022-11-12T05:05:15.607Z,1.77
2022-11-12T05:10:35.990Z,1.23
2022-11-12T05:15:56.443Z,2.42
2022-11-12T05:21:39.291Z,0.73
2022-11-12T05:27:03.339Z,1.92
2022-11-12T05:32:23.821Z,0.77
2022-11-12T05:37:44.091Z,0.63
2022-11-12T05:43:04.513Z,2.13
2022-11-12T05:48:24.927Z,4.35
2022-11-12T05:53:45.325Z,2.85
2022-11-12T05:59:08.364Z,2.15
2022-11-12T06:04:29.492Z,3.85
2022-11-12T06:09:49.868Z,1.75
2022-11-12T06:15:10.201Z,3.63
2022-11-12T06:20:30.779Z,4.63
2022-11-12T06:25:51.379Z,2.53
2022-11-12T06:31:11.873Z,1.15
2022-11-12T06:36:32.321Z,1.42
2022-11-12T06:41:52.640Z,2.35
2022-11-12T06:47:13.782Z,1.23
2022-11-12T06:52:34.775Z,2.47
2022-11-12T06:57:55.497Z,3.17
2022-11-12T07:03:16.177Z,0.93
2022-11-12T07:08:37.721Z,3.13
2022-11-12T07:13:58.148Z,1.40
2022-11-12T07:19:18.350Z,1.27
2022-11-12T07:24:38.929Z,3.65
2022-11-12T07:29:59.293Z,0.73
2022-11-12T07:35:19.545Z,2.22
2022-11-12T07:40:40.014Z,0.50
2022-11-12T07:46:09.104Z,1.48
2022-11-12T07:51:31.060Z,3.87
2022-11-12T07:56:51.556Z,0.45
2022-11-12T08:02:11.959Z,0.60
2022-11-12T08:12:56.311Z,3.20
2022-11-12T08:18:17.269Z,6.35
2022-11-12T08:23:37.967Z,3.58
2022-11-12T08:28:58.404Z,6.97
2022-11-12T08:34:22.644Z,4.10
2022-11-12T08:39:43.531Z,3.63
2022-11-12T08:45:04.234Z,6.53
2022-11-12T08:50:24.581Z,3.25
2022-11-12T08:55:44.913Z,2.38
2022-11-12T09:01:07.388Z,2.75
2022-11-12T09:06:27.658Z,6.20
2022-11-12T09:11:48.032Z,4.88
2022-11-12T09:17:08.404Z,4.60
2022-11-12T09:22:28.856Z,7.93
2022-11-12T09:27:49.371Z,4.63
2022-11-12T09:33:10.099Z,5.80
2022-11-12T09:38:31.468Z,2.17
2022-11-12T09:43:58.118Z,11.77
2022-11-12T09:49:48.070Z,4.00
2022-11-12T09:55:29.011Z,3.00
2022-11-12T10:01:06.863Z,7.53
2022-11-12T10:06:38.517Z,3.08
2022-11-12T10:12:31.648Z,7.18
2022-11-12T10:18:14.124Z,3.25
2022-11-12T10:24:01.185Z,6.18
2022-11-12T10:29:42.560Z,5.70
2022-11-12T10:35:02.808Z,6.35
2022-11-12T10:40:26.465Z,3.13
2022-11-12T10:45:48.507Z,4.00
2022-11-12T10:51:30.361Z,3.80
2022-11-12T10:56:55.458Z,4.45
2022-11-12T11:02:19.252Z,5.45
2022-11-12T11:07:49.299Z,4.63
2022-11-12T11:13:21.145Z,3.40
2022-11-12T11:18:45.512Z,4.72
2022-11-12T11:24:30.252Z,4.25
2022-11-12T11:30:13.703Z,11.48
2022-11-12T11:36:04.429Z,4.95
2022-11-12T11:41:44.722Z,3.37
2022-11-12T11:47:14.207Z,3.67
2022-11-12T11:52:52.367Z,2.08
2022-11-12T11:58:41.990Z,7.60
2022-11-12T12:04:13.912Z,3.90
2022-11-12T12:09:48.937Z,3.65
2022-11-12T12:15:27.545Z,3.58
2022-11-12T12:20:53.988Z,4.10
2022-11-12T12:26:29.484Z,3.20
2022-11-12T12:32:24.477Z,7.30
2022-11-12T12:38:01.447Z,2.65
2022-11-12T12:43:35.288Z,2.42
2022-11-12T12:48:56.839Z,4.05
2022-11-12T12:54:37.394Z,6.13
2022-11-12T13:00:33.814Z,6.22
2022-11-12T13:06:16.379Z,3.42
2022-11-12T13:12:01.074Z,2.97
2022-11-12T13:17:48.175Z,3.63
2022-11-12T13:23:10.770Z,1.45
2022-11-12T13:28:31.148Z,1.67
2022-11-12T13:33:51.709Z,5.38
2022-11-12T13:39:19.298Z,3.70
2022-11-12T13:44:39.757Z,4.10
2022-11-12T13:50:01.708Z,12.15
2022-11-12T13:55:23.348Z,13.95
2022-11-12T14:00:53.089Z,28.80
2022-11-12T14:06:35.234Z,21.60
2022-11-12T14:12:23.038Z,24.75
2022-11-12T14:17:55.154Z,17.48
2022-11-12T14:23:25.162Z,9.85
2022-11-12T14:28:45.680Z,10.47
2022-11-12T14:34:30.117Z,14.80
2022-11-12T14:39:51.057Z,9.82
2022-11-12T14:50:41.636Z,8.68
2022-11-12T14:56:05.516Z,9.23
2022-11-12T15:07:23.611Z,7.43
2022-11-12T15:18:23.724Z,10.18
2022-11-12T15:23:53.180Z,12.60
2022-11-12T15:29:27.293Z,11.40
2022-11-12T15:34:49.118Z,7.47
2022-11-12T15:40:16.406Z,14.77
2022-11-12T15:45:36.560Z,9.85
2022-11-12T15:50:56.781Z,9.43
2022-11-12T15:56:21.708Z,16.30
2022-11-12T16:01:43.176Z,10.95
2022-11-12T16:07:06.895Z,10.35
2022-11-12T16:12:28.094Z,9.45
2022-11-12T16:17:48.374Z,9.18
2022-11-12T16:23:09.880Z,17.75
2022-11-12T16:28:30.494Z,11.70
2022-11-12T16:33:50.995Z,13.38
2022-11-12T16:44:34.252Z,8.85
2022-11-12T16:49:54.732Z,12.88
2022-11-12T16:55:15.697Z,8.27
2022-11-12T17:00:36.216Z,19.88
2022-11-12T17:05:56.420Z,15.82
2022-11-12T17:11:17.373Z,11.85
2022-11-12T17:16:37.565Z,10.45
2022-11-12T17:21:58.036Z,11.80
2022-11-12T17:27:18.622Z,15.10
2022-11-12T17:37:59.130Z,16.13
2022-11-12T17:43:19.286Z,16.48
2022-11-12T17:48:40.543Z,20.92
2022-11-12T17:54:00.668Z,17.92
2022-11-12T17:59:20.790Z,13.50
2022-11-12T18:04:41.236Z,11.82
2022-11-12T18:10:01.317Z,18.67
2022-11-12T18:15:21.938Z,16.40
2022-11-12T18:20:42.665Z,14.75
2022-11-12T18:31:24.329Z,26.95
2022-11-12T18:36:44.962Z,28.05
2022-11-12T18:42:05.396Z,34.33
2022-11-12T18:52:46.154Z,16.67
2022-11-12T18:58:06.278Z,15.60
2022-11-12T19:03:27.036Z,12.18
2022-11-12T19:08:47.837Z,7.90
2022-11-12T19:19:28.508Z,19.83
2022-11-12T19:24:48.797Z,15.70
2022-11-12T19:30:09.946Z,15.65
2022-11-12T19:35:30.209Z,26.48
2022-11-12T19:40:50.885Z,19.60
2022-11-12T19:46:11.761Z,16.50
2022-11-12T19:51:32.609Z,18.90
2022-11-12T19:56:53.112Z,17.85
2022-11-12T20:07:34.458Z,12.93
2022-11-12T20:18:16.053Z,10.57
2022-11-12T20:23:37.859Z,12.40
2022-11-12T20:28:58.520Z,10.50
2022-11-12T20:34:18.904Z,10.35
2022-11-12T20:39:39.306Z,11.00
2022-11-12T20:50:20.531Z,13.32
2022-11-12T21:01:01.709Z,9.00
2022-11-12T21:06:25.135Z,22.55
2022-11-12T21:11:45.586Z,8.50
2022-11-12T21:17:05.875Z,11.75
2022-11-12T21:22:26.467Z,14.35
2022-11-12T21:27:46.693Z,9.18
2022-11-12T21:33:07.083Z,13.77
2022-11-12T21:43:49.527Z,9.98
2022-11-12T21:49:10.021Z,8.02
2022-11-12T21:54:30.240Z,13.85
2022-11-12T21:59:50.441Z,17.52
2022-11-12T22:05:10.830Z,15.15
2022-11-12T22:15:52.778Z,9.15
2022-11-12T22:21:17.167Z,7.55
2022-11-12T22:26:37.769Z,10.20
2022-11-12T22:31:57.934Z,9.18
2022-11-12T22:42:38.557Z,9.52
2022-11-12T22:47:59.377Z,9.40
2022-11-12T22:53:19.686Z,8.25
2022-11-12T22:58:44.783Z,7.43
2022-11-12T23:04:07.104Z,6.20
2022-11-12T23:09:27.662Z,10.32
2022-11-12T23:14:48.243Z,10.70
2022-11-12T23:20:09.592Z,9.85
2022-11-12T23:25:33.218Z,12.20
2022-11-12T23:30:53.411Z,13.15
2022-11-12T23:41:34.083Z,8.95
2022-11-12T23:46:54.468Z,14.18
2022-11-12T23:52:15.031Z,20.20
